Time;durP1;ratioP1;P1;durP2;ratioP2;P2;SDS_P1;SDS_P2;PMS_P1;PMS_P2;Temp;Humidity;BMP_temperature;BMP_pressure;BME280_temperature;BME280_humidity;BME280_pressure;Samples;Min_cycle;Max_cycle;Signal;HPM_P1;HPM_P2
2021/04/10 00:00:33;;;;;;;4.28;2.03;;;17.60;52.40;;;;;;6213611;23;20075;-75
2021/04/10 00:02:59;;;;;;;2.83;1.70;;;17.60;52.40;;;;;;6213503;23;20059;-75
2021/04/10 00:05:26;;;;;;;3.70;1.90;;;17.60;52.40;;;;;;6213657;23;20000;-75
2021/04/10 00:07:52;;;;;;;3.30;2.17;;;17.50;52.40;;;;;;6213792;23;20000;-76
2021/04/10 00:10:20;;;;;;;4.00;1.58;;;17.50;52.40;;;;;;6213445;23;20001;-76
2021/04/10 00:12:45;;;;;;;4.63;2.08;;;17.50;52.50;;;;;;6213538;23;20396;-75
2021/04/10 00:15:14;;;;;;;2.45;1.77;;;17.50;52.50;;;;;;6213510;23;20080;-76
2021/04/10 00:17:41;;;;;;;2.33;1.42;;;17.50;52.40;;;;;;6213479;23;20004;-77
2021/04/10 00:20:12;;;;;;;6.05;2.10;;;17.50;52.50;;;;;;6212765;23;19997;-76
2021/04/10 00:22:38;;;;;;;2.92;1.67;;;17.50;52.40;;;;;;6213185;23;20059;-74
2021/04/10 00:25:05;;;;;;;3.20;1.80;;;17.50;52.40;;;;;;6213260;23;20004;-76
2021/04/10 00:27:31;;;;;;;3.20;2.08;;;17.50;52.50;;;;;;6213207;23;20026;-75
2021/04/10 00:29:57;;;;;;;3.25;1.83;;;17.40;52.50;;;;;;6215419;23;20008;-73
2021/04/10 00:32:22;;;;;;;4.30;2.10;;;17.40;52.50;;;;;;6215698;23;20003;-75
2021/04/10 00:34:48;;;;;;;2.83;1.83;;;17.40;52.50;;;;;;6215140;23;20012;-74
2021/04/10 00:37:13;;;;;;;3.72;1.95;;;17.40;52.50;;;;;;6214760;23;20492;-75
2021/04/10 00:39:39;;;;;;;3.40;1.58;;;17.40;52.50;;;;;;6188362;23;20052;-75
2021/04/10 00:42:05;;;;;;;3.45;1.88;;;17.40;52.50;;;;;;6188037;23;20020;-76
2021/04/10 00:44:30;;;;;;;3.42;1.65;;;17.30;52.50;;;;;;6215154;23;20000;-75
2021/04/10 00:46:56;;;;;;;4.15;2.55;;;17.30;52.60;;;;;;6215520;23;20005;-77
2021/04/10 00:49:22;;;;;;;2.85;1.70;;;17.30;52.50;;;;;;6214861;23;20083;-75
2021/04/10 00:51:47;;;;;;;6.13;2.45;;;17.30;52.60;;;;;;6188102;23;20016;-76
2021/04/10 00:54:13;;;;;;;4.25;2.05;;;17.30;52.60;;;;;;6214891;23;20025;-76
2021/04/10 00:56:39;;;;;;;3.28;1.52;;;17.20;52.60;;;;;;6214478;23;20005;-76
2021/04/10 00:59:05;;;;;;;3.40;1.88;;;17.20;52.70;;;;;;6215180;23;20055;-76
2021/04/10 01:01:31;;;;;;;4.15;1.92;;;17.20;52.70;;;;;;6215033;23;20005;-76
2021/04/10 01:03:58;;;;;;;4.88;2.08;;;17.20;52.70;;;;;;6215226;23;20001;-76
2021/04/10 01:06:24;;;;;;;3.83;2.00;;;17.20;52.70;;;;;;6215358;23;20005;-77
2021/04/10 01:08:50;;;;;;;5.65;2.78;;;17.10;52.60;;;;;;6214784;23;20001;-75
2021/04/10 01:11:43;;;;;;;3.40;2.25;;;17.10;52.70;;;;;;6214646;23;20004;-75
2021/04/10 01:14:38;;;;;;;4.45;2.72;;;17.20;52.80;;;;;;6214953;23;20001;-76
2021/04/10 01:17:12;;;;;;;4.03;2.10;;;17.10;52.80;;;;;;6188579;23;20005;-76
2021/04/10 01:20:10;;;;;;;3.25;2.08;;;17.10;52.80;;;;;;6214527;23;20067;-76
2021/04/10 01:22:45;;;;;;;3.78;2.47;;;17.10;52.80;;;;;;6187983;23;20450;-74
2021/04/10 01:25:38;;;;;;;4.88;2.17;;;17.10;52.80;;;;;;6214660;23;20058;-74
2021/04/10 01:28:13;;;;;;;3.83;2.00;;;17.00;52.80;;;;;;6214889;23;20001;-76
2021/04/10 01:30:39;;;;;;;4.15;2.30;;;17.00;52.80;;;;;;6214809;23;20365;-75
2021/04/10 01:33:11;;;;;;;5.32;2.65;;;17.00;52.80;;;;;;6214594;23;20001;-75
2021/04/10 01:35:43;;;;;;;3.50;2.03;;;17.00;52.80;;;;;;6214738;23;20024;-75
2021/04/10 01:38:14;;;;;;;4.10;2.47;;;17.00;52.80;;;;;;6214411;23;20457;-76
2021/04/10 01:40:41;;;;;;;4.03;2.08;;;17.00;52.80;;;;;;6214729;23;20444;-75
2021/04/10 01:43:08;;;;;;;3.85;2.28;;;17.00;52.90;;;;;;6214430;23;20004;-76
2021/04/10 01:45:35;;;;;;;2.97;2.13;;;17.00;52.80;;;;;;6214621;23;19997;-76
2021/04/10 01:48:08;;;;;;;3.80;2.58;;;16.90;52.80;;;;;;6214625;23;20015;-76
2021/04/10 01:50:35;;;;;;;3.67;2.60;;;16.90;52.90;;;;;;6214386;23;20441;-76
2021/04/10 01:53:02;;;;;;;3.72;2.03;;;16.90;52.90;;;;;;6214895;23;20329;-74
2021/04/10 01:55:28;;;;;;;4.35;2.17;;;16.90;53.00;;;;;;6215041;23;19996;-73
2021/04/10 01:57:55;;;;;;;4.90;2.58;;;16.90;52.90;;;;;;6214496;23;20342;-74
2021/04/10 02:00:23;;;;;;;5.38;3.10;;;16.80;52.90;;;;;;6187626;23;20009;-76
2021/04/10 02:02:51;;;;;;;4.72;2.38;;;16.80;52.90;;;;;;6214244;23;20009;-72
2021/04/10 02:05:17;;;;;;;3.67;2.17;;;16.80;52.90;;;;;;6214220;23;20001;-74
2021/04/10 02:07:47;;;;;;;4.57;2.55;;;16.80;53.00;;;;;;6214158;23;20386;-76
2021/04/10 02:10:16;;;;;;;3.65;2.22;;;16.80;52.90;;;;;;6214816;23;20001;-76
2021/04/10 02:12:43;;;;;;;5.00;2.42;;;16.80;52.90;;;;;;6214239;23;20001;-76
2021/04/10 02:15:12;;;;;;;3.65;2.40;;;16.80;53.00;;;;;;6187557;23;20055;-74
2021/04/10 02:17:38;;;;;;;4.75;2.72;;;16.80;53.00;;;;;;6214189;23;20024;-74
2021/04/10 02:20:10;;;;;;;3.10;2.50;;;16.80;52.90;;;;;;6214043;23;20004;-76
2021/04/10 02:22:36;;;;;;;4.85;2.67;;;16.80;53.00;;;;;;6213942;23;20016;-75
2021/04/10 02:25:02;;;;;;;6.15;2.58;;;16.80;53.00;;;;;;6214410;23;20430;-76
2021/04/10 02:27:28;;;;;;;4.00;2.75;;;16.70;53.00;;;;;;6214005;23;20005;-75
2021/04/10 02:29:53;;;;;;;5.57;2.60;;;16.70;53.00;;;;;;6214064;23;20111;-76
2021/04/10 02:32:25;;;;;;;3.55;2.40;;;16.70;53.00;;;;;;6213972;23;20012;-76
2021/04/10 02:35:26;;;;;;;3.33;2.10;;;16.70;53.00;;;;;;6214294;23;20004;-77
2021/04/10 02:37:53;;;;;;;3.40;2.45;;;16.70;53.00;;;;;;6149939;23;20111;-76
2021/04/10 02:40:21;;;;;;;4.63;2.60;;;16.70;53.10;;;;;;6213627;23;20001;-74
2021/04/10 02:42:47;;;;;;;5.85;2.30;;;16.70;53.00;;;;;;6214163;23;20008;-75
2021/04/10 02:45:19;;;;;;;4.05;2.15;;;16.60;53.00;;;;;;6187382;23;20004;-75
2021/04/10 02:47:47;;;;;;;6.05;2.58;;;16.60;53.10;;;;;;6213990;23;20311;-76
2021/04/10 02:50:16;;;;;;;5.13;2.83;;;16.60;53.00;;;;;;6213712;23;20071;-75
2021/04/10 02:52:51;;;;;;;3.92;2.42;;;16.60;53.00;;;;;;6213702;23;20024;-75
2021/04/10 02:55:48;;;;;;;3.45;2.40;;;16.60;53.00;;;;;;6213936;23;20402;-76
2021/04/10 02:58:16;;;;;;;3.67;2.38;;;16.60;53.10;;;;;;6187987;23;20005;-75
2021/04/10 03:00:43;;;;;;;3.72;2.63;;;16.60;53.10;;;;;;6213550;23;20009;-76
2021/04/10 03:03:12;;;;;;;4.65;2.95;;;16.50;53.00;;;;;;6213740;23;20389;-75
2021/04/10 03:05:40;;;;;;;4.38;2.55;;;16.50;53.10;;;;;;6213751;23;20115;-71
2021/04/10 03:08:08;;;;;;;4.63;2.80;;;16.50;53.10;;;;;;6213865;23;20007;-72
2021/04/10 03:10:34;;;;;;;4.35;2.78;;;16.50;53.10;;;;;;6187565;23;20425;-74
2021/04/10 03:13:01;;;;;;;4.18;2.50;;;16.50;53.10;;;;;;6213768;23;20008;-77
2021/04/10 03:15:27;;;;;;;6.15;2.85;;;16.50;53.10;;;;;;6213688;23;20392;-76
2021/04/10 03:17:54;;;;;;;4.88;3.03;;;16.50;53.10;;;;;;6213734;23;20001;-77
2021/04/10 03:20:21;;;;;;;3.75;2.47;;;16.50;53.10;;;;;;6187239;23;20000;-73
2021/04/10 03:22:48;;;;;;;4.40;2.83;;;16.50;53.10;;;;;;6213756;23;20396;-76
2021/04/10 03:25:16;;;;;;;5.07;2.78;;;16.50;53.10;;;;;;6187275;23;20008;-75
2021/04/10 03:27:43;;;;;;;4.70;2.97;;;16.50;53.10;;;;;;6213744;23;20004;-78
2021/04/10 03:30:11;;;;;;;5.10;2.50;;;16.40;53.10;;;;;;6213433;23;20012;-75
2021/04/10 03:32:42;;;;;;;5.35;2.60;;;16.40;53.10;;;;;;6213694;23;20441;-74
2021/04/10 03:35:09;;;;;;;5.35;3.20;;;16.40;53.10;;;;;;6213656;23;20009;-73
2021/04/10 03:37:34;;;;;;;3.95;2.85;;;16.40;53.10;;;;;;6213906;23;20012;-74
2021/04/10 03:40:00;;;;;;;4.63;2.80;;;16.40;53.10;;;;;;6213656;23;20001;-75
2021/04/10 03:42:36;;;;;;;4.93;2.78;;;16.40;53.10;;;;;;6213400;23;20012;-76
2021/04/10 03:45:04;;;;;;;4.43;2.72;;;16.40;53.20;;;;;;6213473;23;20081;-75
2021/04/10 03:47:30;;;;;;;3.92;2.70;;;16.40;53.20;;;;;;6213238;23;20005;-75
2021/04/10 03:49:56;;;;;;;4.88;2.95;;;16.40;53.20;;;;;;6213570;23;20023;-76
2021/04/10 03:52:21;;;;;;;5.35;2.60;;;16.30;53.10;;;;;;6213415;23;20012;-73
2021/04/10 03:54:47;;;;;;;6.00;3.33;;;16.40;53.20;;;;;;6213535;23;20031;-75
2021/04/10 03:57:13;;;;;;;5.35;3.15;;;16.30;53.20;;;;;;6162208;23;20005;-75
2021/04/10 03:59:38;;;;;;;4.90;3.00;;;16.30;53.20;;;;;;6213407;23;20341;-72
2021/04/10 04:02:04;;;;;;;4.28;3.15;;;16.30;53.20;;;;;;6213320;23;20008;-76
2021/04/10 04:04:30;;;;;;;3.90;2.97;;;16.30;53.20;;;;;;6215094;23;20027;-76
2021/04/10 04:06:55;;;;;;;3.63;2.53;;;16.30;53.10;;;;;;6215525;23;20008;-75
2021/04/10 04:09:21;;;;;;;4.78;3.38;;;16.30;53.20;;;;;;6215716;23;20004;-73
2021/04/10 04:11:46;;;;;;;6.55;3.60;;;16.30;53.30;;;;;;6215355;23;20004;-74
2021/04/10 04:14:12;;;;;;;4.55;2.67;;;16.30;53.30;;;;;;6215359;23;20001;-74
2021/04/10 04:16:37;;;;;;;5.70;3.42;;;16.30;53.30;;;;;;6215679;23;20005;-76
2021/04/10 04:19:03;;;;;;;4.13;3.03;;;16.30;53.20;;;;;;6215571;23;19996;-75
2021/04/10 04:21:29;;;;;;;5.78;3.10;;;16.30;53.20;;;;;;6215290;23;20008;-76
2021/04/10 04:23:54;;;;;;;2.92;2.60;;;16.30;53.20;;;;;;6188666;23;20338;-72
2021/04/10 04:26:20;;;;;;;4.50;3.25;;;16.30;53.20;;;;;;6215207;23;20077;-75
2021/04/10 04:28:45;;;;;;;3.83;2.90;;;16.30;53.20;;;;;;6188656;23;20008;-72
2021/04/10 04:31:11;;;;;;;5.10;2.92;;;16.30;53.20;;;;;;6214828;23;20429;-72
2021/04/10 04:33:37;;;;;;;4.40;3.05;;;16.20;53.20;;;;;;6215445;23;20008;-73
2021/04/10 04:36:02;;;;;;;6.30;3.33;;;16.20;53.20;;;;;;6215229;23;19997;-74
2021/04/10 04:38:28;;;;;;;3.50;2.40;;;16.20;53.20;;;;;;6214507;23;20020;-73
2021/04/10 04:40:54;;;;;;;5.38;3.00;;;16.20;53.20;;;;;;6214934;23;20464;-71
2021/04/10 04:43:19;;;;;;;4.45;2.80;;;16.30;53.20;;;;;;6215072;23;20001;-72
2021/04/10 04:45:45;;;;;;;5.55;2.92;;;16.20;53.20;;;;;;6214956;23;20051;-72
2021/04/10 04:48:11;;;;;;;3.85;2.63;;;16.20;53.30;;;;;;6215700;23;20008;-74
2021/04/10 04:50:36;;;;;;;4.28;2.78;;;16.20;53.30;;;;;;6215679;23;20012;-72
2021/04/10 04:53:02;;;;;;;3.38;2.10;;;16.20;53.30;;;;;;6215103;23;20012;-73
2021/04/10 04:55:27;;;;;;;6.22;2.80;;;16.20;53.30;;;;;;6215272;23;20059;-75
2021/04/10 04:57:53;;;;;;;3.53;2.30;;;16.20;53.90;;;;;;6215021;23;20433;-74
2021/04/10 05:00:19;;;;;;;4.35;2.60;;;16.20;53.30;;;;;;6214478;23;19997;-73
2021/04/10 05:02:45;;;;;;;3.70;2.53;;;16.20;53.30;;;;;;6214949;23;20013;-73
2021/04/10 05:05:11;;;;;;;4.45;2.40;;;16.20;53.30;;;;;;6215338;23;20024;-73
2021/04/10 05:07:36;;;;;;;3.72;2.28;;;16.20;53.30;;;;;;6215085;23;20016;-72
2021/04/10 05:10:02;;;;;;;3.33;2.38;;;16.10;53.20;;;;;;6188407;23;20013;-77
2021/04/10 05:12:28;;;;;;;4.75;2.80;;;16.20;53.30;;;;;;6214748;23;20012;-71
2021/04/10 05:14:54;;;;;;;3.88;2.65;;;16.10;53.30;;;;;;6214369;23;20342;-71
2021/04/10 05:17:19;;;;;;;4.22;2.58;;;16.20;53.30;;;;;;6214845;23;20005;-74
2021/04/10 05:19:45;;;;;;;4.20;2.30;;;16.10;53.20;;;;;;6214971;23;20001;-74
2021/04/10 05:22:11;;;;;;;3.40;2.10;;;16.10;53.30;;;;;;6215032;23;20091;-76
2021/04/10 05:24:36;;;;;;;3.83;2.45;;;16.10;53.30;;;;;;6214708;23;19997;-75
2021/04/10 05:27:02;;;;;;;3.95;2.72;;;16.10;53.30;;;;;;6214636;23;20004;-76
2021/04/10 05:29:28;;;;;;;4.53;2.38;;;16.10;53.40;;;;;;6214499;23;20028;-78
2021/04/10 05:31:54;;;;;;;3.85;2.65;;;16.10;53.40;;;;;;6214631;23;20008;-76
2021/04/10 05:34:20;;;;;;;4.35;2.58;;;16.10;53.50;;;;;;6214522;23;20001;-77
2021/04/10 05:36:45;;;;;;;3.75;2.35;;;16.10;53.50;;;;;;6214535;23;20024;-76
2021/04/10 05:39:11;;;;;;;3.25;2.50;;;16.10;53.50;;;;;;6214804;23;20305;-77
2021/04/10 05:41:36;;;;;;;3.33;2.25;;;16.10;53.60;;;;;;6214519;23;20040;-78
2021/04/10 05:44:02;;;;;;;5.90;2.85;;;16.10;53.60;;;;;;6214300;23;20426;-78
2021/04/10 05:46:28;;;;;;;4.45;2.47;;;16.10;53.60;;;;;;6214678;23;20031;-77
2021/04/10 05:48:53;;;;;;;3.05;2.15;;;16.10;53.60;;;;;;6214657;23;20000;-71
2021/04/10 05:51:19;;;;;;;4.50;2.40;;;16.10;53.50;;;;;;6187834;23;20008;-73
2021/04/10 05:53:45;;;;;;;3.13;2.22;;;16.10;53.60;;;;;;6214432;23;20339;-73
2021/04/10 05:56:11;;;;;;;4.20;2.55;;;16.10;53.60;;;;;;6214776;23;20000;-75
2021/04/10 05:58:38;;;;;;;3.45;2.65;;;16.10;53.60;;;;;;6214245;23;20011;-73
2021/04/10 06:01:04;;;;;;;4.25;2.20;;;16.10;53.60;;;;;;6214276;23;20032;-71
2021/04/10 06:03:30;;;;;;;3.70;2.30;;;16.10;53.60;;;;;;6214353;23;20016;-74
2021/04/10 06:05:56;;;;;;;4.38;2.30;;;16.10;53.60;;;;;;6214192;23;20043;-73
2021/04/10 06:08:22;;;;;;;3.88;2.45;;;16.10;53.60;;;;;;6187628;23;20004;-74
2021/04/10 06:10:47;;;;;;;4.55;2.60;;;16.00;53.60;;;;;;6214240;23;19996;-76
2021/04/10 06:13:14;;;;;;;5.10;2.60;;;16.00;53.60;;;;;;6214591;23;20023;-72
2021/04/10 06:15:40;;;;;;;2.83;2.00;;;16.00;53.60;;;;;;6214317;23;19996;-73
2021/04/10 06:18:06;;;;;;;4.03;2.30;;;16.00;53.60;;;;;;6214283;23;20058;-72
2021/04/10 06:20:32;;;;;;;3.63;2.33;;;16.00;54.20;;;;;;6214287;23;20004;-73
2021/04/10 06:22:58;;;;;;;3.13;2.05;;;16.00;53.60;;;;;;6214191;23;20071;-73
2021/04/10 06:25:24;;;;;;;4.55;2.75;;;16.00;53.70;;;;;;6213809;23;20368;-73
2021/04/10 06:27:50;;;;;;;5.18;2.90;;;16.00;53.80;;;;;;6213939;23;20059;-77
2021/04/10 06:30:16;;;;;;;3.28;2.30;;;16.00;53.70;;;;;;6214417;23;20472;-75
2021/04/10 06:32:41;;;;;;;4.00;2.47;;;16.00;53.80;;;;;;6214574;23;20075;-76
2021/04/10 06:35:07;;;;;;;3.92;2.47;;;16.00;53.80;;;;;;6213866;23;20008;-76
2021/04/10 06:37:35;;;;;;;3.92;2.70;;;16.00;53.90;;;;;;6213883;23;20015;-76
2021/04/10 06:40:00;;;;;;;4.88;2.50;;;16.00;53.90;;;;;;6213820;23;20005;-74
2021/04/10 06:42:27;;;;;;;4.65;2.50;;;16.00;53.90;;;;;;6213780;23;20063;-77
2021/04/10 06:44:54;;;;;;;3.63;2.45;;;16.00;53.90;;;;;;6214013;23;20051;-75
2021/04/10 06:47:22;;;;;;;3.47;2.25;;;16.00;53.90;;;;;;6213993;23;20058;-73
2021/04/10 06:49:51;;;;;;;4.10;2.25;;;16.00;53.90;;;;;;6214245;23;20433;-76
2021/04/10 06:52:18;;;;;;;3.95;2.58;;;16.00;53.90;;;;;;6214141;23;20012;-76
2021/04/10 06:54:46;;;;;;;3.90;2.22;;;16.00;54.00;;;;;;6214241;23;20005;-77
2021/04/10 06:57:18;;;;;;;3.70;2.30;;;16.00;53.90;;;;;;6214063;23;20047;-73
2021/04/10 06:59:59;;;;;;;3.60;2.40;;;16.00;53.90;;;;;;6214289;23;20001;-74
2021/04/10 07:02:25;;;;;;;3.30;2.40;;;15.90;53.90;;;;;;6213590;23;20039;-72
2021/04/10 07:04:54;;;;;;;3.42;2.35;;;15.90;53.90;;;;;;6213664;23;20004;-73
2021/04/10 07:07:20;;;;;;;4.05;2.15;;;16.00;54.00;;;;;;6187225;23;20009;-75
2021/04/10 07:09:46;;;;;;;3.63;2.42;;;15.90;54.00;;;;;;6214396;23;20380;-72
2021/04/10 07:12:12;;;;;;;3.20;2.42;;;15.90;54.00;;;;;;6187196;23;20004;-72
2021/04/10 07:14:37;;;;;;;4.32;2.70;;;15.90;54.00;;;;;;6213661;23;20008;-72
2021/04/10 07:17:03;;;;;;;3.42;2.67;;;15.90;54.10;;;;;;6213689;23;19997;-72
2021/04/10 07:19:29;;;;;;;4.55;2.40;;;15.90;54.10;;;;;;6213859;23;20028;-75
2021/04/10 07:22:15;;;;;;;3.72;2.42;;;15.90;54.20;;;;;;6213376;23;20020;-72
2021/04/10 07:24:51;;;;;;;4.75;2.92;;;15.90;54.20;;;;;;6213760;23;20004;-72
2021/04/10 07:27:20;;;;;;;3.95;2.50;;;15.90;54.20;;;;;;6214504;23;20001;-72
2021/04/10 07:29:48;;;;;;;4.85;2.72;;;15.90;54.20;;;;;;6213868;23;20000;-72
2021/04/10 07:32:34;;;;;;;4.65;2.67;;;15.90;54.80;;;;;;6213306;23;20001;-72
2021/04/10 07:35:05;;;;;;;4.13;2.58;;;15.90;54.30;;;;;;6187048;23;20091;-71
2021/04/10 07:37:31;;;;;;;4.97;2.80;;;15.90;54.30;;;;;;6187660;23;20016;-73
2021/04/10 07:39:57;;;;;;;5.68;2.80;;;15.90;54.30;;;;;;6214970;23;20015;-73
2021/04/10 07:42:27;;;;;;;5.22;2.80;;;15.90;54.30;;;;;;6188729;23;20012;-71
2021/04/10 07:44:53;;;;;;;4.35;2.90;;;15.90;54.30;;;;;;6215348;23;20001;-71
2021/04/10 07:47:31;;;;;;;4.38;2.90;;;15.90;54.30;;;;;;6215997;23;20434;-71
2021/04/10 07:50:15;;;;;;;4.65;2.40;;;15.90;54.30;;;;;;6215928;23;19996;-73
2021/04/10 07:52:40;;;;;;;3.85;2.53;;;15.90;54.30;;;;;;6215670;23;20024;-75
2021/04/10 07:55:07;;;;;;;6.25;2.63;;;15.90;54.30;;;;;;6188718;23;20437;-78
2021/04/10 07:57:33;;;;;;;3.80;2.60;;;15.90;54.20;;;;;;6188687;23;20007;-78
2021/04/10 08:00:00;;;;;;;3.72;2.28;;;16.00;54.20;;;;;;6215605;23;20430;-79
2021/04/10 08:02:33;;;;;;;5.03;2.75;;;16.00;54.10;;;;;;6215550;23;20409;-79
2021/04/10 08:05:01;;;;;;;3.70;2.20;;;16.10;54.10;;;;;;6215416;23;20040;-79
2021/04/10 08:07:29;;;;;;;3.72;2.53;;;16.20;54.10;;;;;;6214844;23;20009;-77
2021/04/10 08:10:03;;;;;;;4.28;2.63;;;16.30;54.30;;;;;;6214437;23;20007;-79
2021/04/10 08:12:34;;;;;;;3.90;2.92;;;16.40;54.40;;;;;;6215569;23;20306;-77
2021/04/10 08:15:01;;;;;;;6.40;3.17;;;16.50;54.30;;;;;;6215340;23;20135;-74
2021/04/10 08:17:39;;;;;;;6.70;3.20;;;16.60;54.30;;;;;;6215496;23;20003;-73
2021/04/10 08:20:25;;;;;;;6.75;2.58;;;16.80;54.90;;;;;;6215399;23;20336;-75
2021/04/10 08:22:53;;;;;;;4.05;2.80;;;16.90;54.60;;;;;;6189509;23;20012;-75
2021/04/10 08:25:33;;;;;;;4.90;2.60;;;17.10;54.30;;;;;;6216079;23;20003;-80
2021/04/10 08:27:59;;;;;;;4.28;2.75;;;17.20;54.10;;;;;;6216667;23;20521;-80
2021/04/10 08:30:26;;;;;;;3.90;2.95;;;17.40;54.10;;;;;;6215143;23;20005;-82
2021/04/10 08:32:52;;;;;;;6.13;3.88;;;17.50;53.90;;;;;;6215764;23;20493;-82
2021/04/10 08:35:18;;;;;;;7.18;4.30;;;17.60;54.10;;;;;;6215257;23;20087;-80
2021/04/10 08:37:50;;;;;;;8.13;4.10;;;17.60;54.10;;;;;;6215176;23;20012;-80
2021/04/10 08:40:23;;;;;;;8.35;5.70;;;17.70;54.20;;;;;;6188421;23;20059;-82
2021/04/10 08:42:49;;;;;;;9.90;5.22;;;17.80;54.30;;;;;;6215112;23;20016;-77
2021/04/10 08:45:15;;;;;;;10.75;6.00;;;17.90;54.70;;;;;;6187867;23;20036;-74
2021/04/10 08:47:42;;;;;;;8.57;5.50;;;17.90;54.30;;;;;;6215021;23;20006;-79
2021/04/10 08:50:11;;;;;;;8.93;5.57;;;18.00;54.30;;;;;;6214760;23;20012;-76
2021/04/10 08:52:38;;;;;;;8.90;6.07;;;18.10;54.60;;;;;;6215180;23;20001;-81
2021/04/10 08:55:07;;;;;;;9.70;5.70;;;18.20;54.50;;;;;;6214844;23;20005;-74
2021/04/10 08:57:50;;;;;;;7.72;4.80;;;18.30;54.40;;;;;;6214765;23;20000;-73
2021/04/10 09:00:21;;;;;;;9.80;5.32;;;18.40;54.30;;;;;;6213847;23;20001;-75
2021/04/10 09:03:00;;;;;;;11.65;6.13;;;18.40;54.40;;;;;;6213438;23;20013;-78
2021/04/10 09:05:45;;;;;;;9.80;6.57;;;18.50;54.40;;;;;;6215468;23;19997;-77
2021/04/10 09:08:26;;;;;;;10.52;6.32;;;18.50;54.50;;;;;;6214302;23;20056;-76
2021/04/10 09:10:53;;;;;;;13.38;6.50;;;18.60;54.40;;;;;;6214629;23;20103;-81
2021/04/10 09:13:19;;;;;;;14.23;7.03;;;18.60;54.20;;;;;;6214614;23;20004;-82
2021/04/10 09:15:44;;;;;;;11.35;7.22;;;18.70;54.00;;;;;;6214511;23;20004;-81
2021/04/10 09:18:13;;;;;;;15.13;7.28;;;18.70;53.90;;;;;;6214964;23;20000;-82
2021/04/10 09:20:44;;;;;;;15.80;6.65;;;18.80;53.80;;;;;;6213323;23;20012;-71
2021/04/10 09:23:33;;;;;;;15.45;6.72;;;18.80;53.80;;;;;;6211176;23;20348;-78
2021/04/10 09:26:09;;;;;;;12.73;6.18;;;18.90;53.60;;;;;;6206989;23;20008;-77
2021/04/10 09:28:35;;;;;;;11.60;6.93;;;18.90;53.40;;;;;;6201641;23;20005;-78
2021/04/10 09:31:02;;;;;;;13.13;6.32;;;19.00;53.20;;;;;;6211792;23;20076;-82
2021/04/10 09:33:30;;;;;;;12.38;6.72;;;19.00;53.10;;;;;;6212539;23;20015;-71
2021/04/10 09:35:57;;;;;;;14.43;6.63;;;19.00;53.00;;;;;;6185013;23;20001;-71
2021/04/10 09:38:44;;;;;;;9.80;5.97;;;19.10;52.80;;;;;;6212649;23;20008;-73
2021/04/10 09:41:11;;;;;;;13.27;5.78;;;19.20;52.70;;;;;;6186032;23;20357;-73
2021/04/10 09:44:07;;;;;;;10.27;6.22;;;19.20;52.50;;;;;;6212782;23;20008;-74
2021/04/10 09:46:34;;;;;;;8.60;5.45;;;19.30;52.40;;;;;;6213582;23;20046;-75
2021/04/10 09:49:00;;;;;;;10.30;5.35;;;19.40;52.10;;;;;;6213275;23;20695;-77
2021/04/10 09:51:26;;;;;;;8.95;5.10;;;19.40;51.90;;;;;;6213030;23;20084;-73
2021/04/10 09:53:52;;;;;;;9.48;4.85;;;19.40;51.80;;;;;;6212895;23;20001;-73
2021/04/10 09:56:19;;;;;;;11.85;5.32;;;19.50;51.70;;;;;;6185793;23;20104;-75
2021/04/10 09:58:47;;;;;;;8.73;4.63;;;19.60;51.60;;;;;;6212906;23;20084;-77
2021/04/10 10:01:39;;;;;;;11.02;4.53;;;19.60;51.60;;;;;;6212424;23;20005;-76
2021/04/10 10:04:12;;;;;;;8.15;4.05;;;19.60;51.50;;;;;;6206831;23;20392;-78
2021/04/10 10:06:46;;;;;;;9.50;4.43;;;19.60;51.30;;;;;;6186006;23;20028;-73
2021/04/10 10:09:23;;;;;;;11.77;4.28;;;19.70;51.30;;;;;;6212344;23;20341;-77
2021/04/10 10:11:54;;;;;;;10.00;4.22;;;19.80;51.30;;;;;;6185432;23;20345;-78
2021/04/10 10:14:20;;;;;;;8.43;4.47;;;19.80;51.10;;;;;;6212460;23;20000;-76
2021/04/10 10:16:46;;;;;;;7.93;3.83;;;19.80;50.90;;;;;;6213193;23;20008;-83
2021/04/10 10:19:16;;;;;;;6.95;3.67;;;19.90;50.80;;;;;;6213144;23;20356;-76
2021/04/10 10:21:41;;;;;;;6.18;3.90;;;19.90;50.80;;;;;;6213551;23;20004;-77
2021/04/10 10:24:07;;;;;;;6.68;3.35;;;20.00;50.70;;;;;;6211935;23;20078;-73
2021/04/10 10:26:45;;;;;;;7.45;3.40;;;20.00;50.60;;;;;;6213006;23;20504;-75
2021/04/10 10:29:14;;;;;;;4.97;3.53;;;20.10;50.50;;;;;;6213760;23;20076;-80
2021/04/10 10:31:53;;;;;;;5.32;3.20;;;20.10;50.40;;;;;;6212496;23;20004;-76
2021/04/10 10:34:23;;;;;;;6.78;3.90;;;20.10;50.30;;;;;;6212863;23;20004;-75
2021/04/10 10:36:50;;;;;;;8.02;3.88;;;20.20;50.20;;;;;;6213064;23;20001;-75
2021/04/10 10:39:30;;;;;;;9.27;3.55;;;20.20;50.30;;;;;;6213521;23;20386;-72
2021/04/10 10:41:57;;;;;;;6.57;3.65;;;20.20;50.30;;;;;;6186334;23;20024;-72
2021/04/10 10:44:23;;;;;;;8.02;4.47;;;20.30;50.30;;;;;;6187168;23;20004;-72
2021/04/10 10:47:08;;;;;;;6.43;3.97;;;20.30;50.20;;;;;;6212857;23;20008;-71
2021/04/10 10:49:34;;;;;;;6.03;3.92;;;20.40;50.00;;;;;;6186189;23;20072;-79
2021/04/10 10:52:00;;;;;;;7.20;4.13;;;20.50;50.00;;;;;;6186333;23;20043;-75
2021/04/10 10:54:32;;;;;;;27.05;4.70;;;20.50;50.20;;;;;;6213149;23;20458;-72
2021/04/10 10:56:58;;;;;;;7.25;3.75;;;20.60;50.00;;;;;;6213211;23;20449;-73
2021/04/10 10:59:27;;;;;;;7.95;3.85;;;20.60;49.90;;;;;;6213644;23;20004;-72
2021/04/10 11:01:53;;;;;;;9.57;4.00;;;20.70;49.70;;;;;;6213260;23;20016;-73
2021/04/10 11:04:23;;;;;;;7.97;3.75;;;20.70;49.70;;;;;;6213188;23;19997;-73
2021/04/10 11:06:52;;;;;;;6.45;3.33;;;20.70;49.30;;;;;;6213379;23;20009;-73
2021/04/10 11:09:31;;;;;;;9.23;3.88;;;20.80;49.30;;;;;;6213126;23;20446;-73
2021/04/10 11:12:00;;;;;;;5.72;3.42;;;20.80;49.30;;;;;;6212902;23;20426;-73
2021/04/10 11:14:28;;;;;;;5.85;3.67;;;20.80;49.20;;;;;;6214176;23;20000;-73
2021/04/10 11:16:58;;;;;;;6.18;3.38;;;20.90;49.30;;;;;;6213451;23;20000;-73
2021/04/10 11:19:32;;;;;;;5.95;2.90;;;20.90;49.30;;;;;;6186800;23;20430;-72
2021/04/10 11:21:59;;;;;;;5.88;3.17;;;20.90;49.30;;;;;;6213131;23;20008;-73
2021/04/10 11:24:43;;;;;;;7.63;3.20;;;21.00;49.20;;;;;;6213224;23;20024;-73
2021/04/10 11:27:22;;;;;;;6.13;2.67;;;21.00;49.20;;;;;;6212950;23;20009;-75
2021/04/10 11:30:04;;;;;;;5.88;2.63;;;21.10;49.20;;;;;;6212783;23;20426;-75
2021/04/10 11:32:37;;;;;;;4.43;3.20;;;21.10;49.10;;;;;;6213130;23;19997;-75
2021/04/10 11:35:15;;;;;;;5.38;3.40;;;21.10;49.10;;;;;;6213159;23;20008;-75
2021/04/10 11:37:53;;;;;;;4.93;2.55;;;21.10;49.10;;;;;;6213075;23;20012;-75
2021/04/10 11:40:31;;;;;;;6.10;2.83;;;21.20;49.10;;;;;;6212979;23;20301;-73
2021/04/10 11:43:11;;;;;;;5.00;2.78;;;21.20;49.00;;;;;;6213305;23;20008;-76
2021/04/10 11:45:46;;;;;;;4.28;2.22;;;21.30;49.10;;;;;;6213138;23;20023;-74
2021/04/10 11:48:15;;;;;;;5.88;2.55;;;21.30;49.00;;;;;;6212773;23;20001;-73
2021/04/10 11:50:43;;;;;;;8.38;2.80;;;21.40;49.10;;;;;;6212851;23;20001;-75
2021/04/10 11:53:15;;;;;;;6.25;2.63;;;21.50;49.10;;;;;;6212795;23;20072;-74
2021/04/10 11:55:41;;;;;;;7.18;3.30;;;21.60;49.10;;;;;;6212623;23;20415;-73
2021/04/10 11:58:06;;;;;;;4.68;2.55;;;21.60;49.20;;;;;;6185941;23;20016;-76
2021/04/10 12:00:32;;;;;;;6.05;2.60;;;21.70;49.20;;;;;;6213000;23;20043;-76
2021/04/10 12:03:08;;;;;;;3.60;2.13;;;21.70;49.20;;;;;;6213478;23;20017;-77
2021/04/10 12:05:43;;;;;;;5.90;2.35;;;21.80;49.30;;;;;;6212952;23;20075;-76
2021/04/10 12:08:10;;;;;;;7.78;2.15;;;21.80;49.30;;;;;;6212550;23;20055;-77
2021/04/10 12:10:46;;;;;;;4.30;2.35;;;21.80;49.50;;;;;;6212992;23;20015;-76
2021/04/10 12:13:12;;;;;;;7.32;2.30;;;21.80;49.60;;;;;;6213265;23;20000;-73
2021/04/10 12:15:39;;;;;;;5.15;2.17;;;21.80;49.70;;;;;;6213052;23;20464;-76
2021/04/10 12:18:08;;;;;;;5.82;1.90;;;21.90;49.80;;;;;;6212575;23;20127;-78
2021/04/10 12:20:34;;;;;;;6.38;2.67;;;21.90;49.90;;;;;;6212652;23;20015;-74
2021/04/10 12:23:01;;;;;;;4.28;1.75;;;21.90;49.90;;;;;;6213249;23;20036;-77
2021/04/10 12:25:27;;;;;;;6.97;2.38;;;21.90;50.00;;;;;;6214654;23;20000;-78
2021/04/10 12:27:52;;;;;;;4.07;2.00;;;21.90;50.20;;;;;;6214450;23;20004;-76
2021/04/10 12:30:18;;;;;;;4.97;1.88;;;21.90;50.00;;;;;;6214436;23;20088;-79
2021/04/10 12:32:44;;;;;;;5.80;2.55;;;22.00;50.60;;;;;;6214526;23;20329;-75
2021/04/10 12:35:11;;;;;;;11.65;4.88;;;21.90;50.40;;;;;;6214773;23;20019;-78
2021/04/10 12:37:37;;;;;;;5.75;2.90;;;21.80;50.30;;;;;;6214482;23;20009;-76
2021/04/10 12:40:05;;;;;;;6.65;2.63;;;21.70;50.60;;;;;;6214023;23;20001;-73
2021/04/10 12:42:31;;;;;;;4.32;2.22;;;21.70;50.60;;;;;;6214902;23;20016;-76
2021/04/10 12:44:57;;;;;;;3.35;2.03;;;21.80;50.70;;;;;;6214941;23;20001;-75
2021/04/10 12:47:22;;;;;;;4.32;2.30;;;21.80;50.60;;;;;;6214502;23;20084;-75
2021/04/10 12:49:48;;;;;;;6.20;2.13;;;21.90;50.80;;;;;;6214284;23;20011;-75
2021/04/10 12:52:14;;;;;;;11.38;1.98;;;21.90;50.70;;;;;;6214667;23;20342;-73
2021/04/10 12:54:40;;;;;;;3.50;1.77;;;21.90;50.50;;;;;;6214407;23;20001;-75